sensor_id;sensor_type;location;lat;lon;timestamp;pressure;altitude;pressure_sealevel;temperature;humidity
55301;BME280;58302;51.446;-2.000;2023-12-07T00:02:02;100605.72;;;5.05;100.00
55301;BME280;58302;51.446;-2.000;2023-12-07T00:04:28;100603.78;;;5.12;100.00
55301;BME280;58302;51.446;-2.000;2023-12-07T00:06:54;100585.53;;;5.14;100.00
55301;BME280;58302;51.446;-2.000;2023-12-07T00:09:20;100593.16;;;5.17;100.00
55301;BME280;58302;51.446;-2.000;2023-12-07T00:11:45;100574.31;;;5.17;100.00
55301;BME280;58302;51.446;-2.000;2023-12-07T00:14:11;100580.06;;;5.20;100.00
55301;BME280;58302;51.446;-2.000;2023-12-07T00:16:37;100573.84;;;5.20;100.00
55301;BME280;58302;51.446;-2.000;2023-12-07T00:19:03;100569.66;;;5.24;100.00
55301;BME280;58302;51.446;-2.000;2023-12-07T00:21:29;100570.22;;;5.26;100.00
55301;BME280;58302;51.446;-2.000;2023-12-07T00:23:56;100564.53;;;5.34;100.00
55301;BME280;58302;51.446;-2.000;2023-12-07T00:26:22;100549.44;;;5.33;100.00
55301;BME280;58302;51.446;-2.000;2023-12-07T00:28:48;100576.38;;;5.33;100.00
55301;BME280;58302;51.446;-2.000;2023-12-07T00:31:14;100556.09;;;5.31;100.00
55301;BME280;58302;51.446;-2.000;2023-12-07T00:33:40;100562.44;;;5.36;100.00
55301;BME280;58302;51.446;-2.000;2023-12-07T00:36:06;100541.94;;;5.35;100.00
55301;BME280;58302;51.446;-2.000;2023-12-07T00:38:32;100540.28;;;5.34;100.00
55301;BME280;58302;51.446;-2.000;2023-12-07T00:40:59;100527.88;;;5.33;100.00
55301;BME280;58302;51.446;-2.000;2023-12-07T00:43:25;100526.59;;;5.36;100.00
55301;BME280;58302;51.446;-2.000;2023-12-07T00:45:51;100520.97;;;5.37;100.00
55301;BME280;58302;51.446;-2.000;2023-12-07T00:48:17;100515.56;;;5.37;100.00
55301;BME280;58302;51.446;-2.000;2023-12-07T00:50:43;100510.19;;;5.37;100.00
55301;BME280;58302;51.446;-2.000;2023-12-07T00:53:09;100494.25;;;5.36;100.00
55301;BME280;58302;51.446;-2.000;2023-12-07T00:55:35;100497.75;;;5.36;100.00
55301;BME280;58302;51.446;-2.000;2023-12-07T00:58:01;100491.31;;;5.37;100.00
55301;BME280;58302;51.446;-2.000;2023-12-07T01:00:27;100483.84;;;5.39;100.00
55301;BME280;58302;51.446;-2.000;2023-12-07T01:02:53;100484.66;;;5.40;100.00
55301;BME280;58302;51.446;-2.000;2023-12-07T01:05:19;100477.16;;;5.42;100.00
55301;BME280;58302;51.446;-2.000;2023-12-07T01:07:45;100485.00;;;5.43;100.00
55301;BME280;58302;51.446;-2.000;2023-12-07T01:10:11;100487.47;;;5.45;100.00
55301;BME280;58302;51.446;-2.000;2023-12-07T01:12:37;100476.72;;;5.45;100.00
55301;BME280;58302;51.446;-2.000;2023-12-07T01:15:03;100465.94;;;5.45;100.00
55301;BME280;58302;51.446;-2.000;2023-12-07T01:17:30;100468.25;;;5.41;100.00
55301;BME280;58302;51.446;-2.000;2023-12-07T01:19:57;100461.56;;;5.44;100.00
55301;BME280;58302;51.446;-2.000;2023-12-07T01:22:22;100471.53;;;5.43;100.00
55301;BME280;58302;51.446;-2.000;2023-12-07T01:24:48;100460.75;;;5.43;100.00
55301;BME280;58302;51.446;-2.000;2023-12-07T01:27:14;100472.13;;;5.45;100.00
55301;BME280;58302;51.446;-2.000;2023-12-07T01:29:40;100461.81;;;5.42;100.00
55301;BME280;58302;51.446;-2.000;2023-12-07T01:32:06;100463.44;;;5.43;100.00
55301;BME280;58302;51.446;-2.000;2023-12-07T01:34:33;100461.56;;;5.44;100.00
55301;BME280;58302;51.446;-2.000;2023-12-07T01:36:59;100449.38;;;5.41;100.00
55301;BME280;58302;51.446;-2.000;2023-12-07T01:39:25;100444.22;;;5.40;100.00
55301;BME280;58302;51.446;-2.000;2023-12-07T01:41:51;100433.66;;;5.38;100.00
55301;BME280;58302;51.446;-2.000;2023-12-07T01:44:17;100427.44;;;5.38;100.00
55301;BME280;58302;51.446;-2.000;2023-12-07T01:46:43;100428.06;;;5.40;100.00
55301;BME280;58302;51.446;-2.000;2023-12-07T01:49:09;100419.16;;;5.39;100.00
55301;BME280;58302;51.446;-2.000;2023-12-07T01:51:35;100425.94;;;5.42;100.00
55301;BME280;58302;51.446;-2.000;2023-12-07T01:54:02;100420.31;;;5.43;100.00
55301;BME280;58302;51.446;-2.000;2023-12-07T01:56:29;100400.28;;;5.39;100.00
55301;BME280;58302;51.446;-2.000;2023-12-07T01:58:56;100401.13;;;5.40;100.00
55301;BME280;58302;51.446;-2.000;2023-12-07T02:01:22;100399.25;;;5.40;100.00
55301;BME280;58302;51.446;-2.000;2023-12-07T02:03:50;100383.53;;;5.37;100.00
55301;BME280;58302;51.446;-2.000;2023-12-07T02:06:16;100376.25;;;5.38;100.00
55301;BME280;58302;51.446;-2.000;2023-12-07T02:08:43;100377.06;;;5.38;100.00
55301;BME280;58302;51.446;-2.000;2023-12-07T02:11:09;100372.75;;;5.37;100.00
55301;BME280;58302;51.446;-2.000;2023-12-07T02:13:37;100357.63;;;5.36;100.00
55301;BME280;58302;51.446;-2.000;2023-12-07T02:16:10;100342.03;;;5.38;100.00
55301;BME280;58302;51.446;-2.000;2023-12-07T02:21:45;100338.19;;;5.34;100.00
55301;BME280;58302;51.446;-2.000;2023-12-07T02:24:16;100330.69;;;5.36;100.00
55301;BME280;58302;51.446;-2.000;2023-12-07T02:26:46;100337.13;;;5.35;100.00
55301;BME280;58302;51.446;-2.000;2023-12-07T02:29:12;100336.06;;;5.36;100.00
55301;BME280;58302;51.446;-2.000;2023-12-07T02:31:38;100327.41;;;5.34;100.00
55301;BME280;58302;51.446;-2.000;2023-12-07T02:34:05;100336.06;;;5.36;100.00
55301;BME280;58302;51.446;-2.000;2023-12-07T02:36:34;100324.84;;;5.39;100.00
55301;BME280;58302;51.446;-2.000;2023-12-07T02:39:03;100334.56;;;5.40;100.00
55301;BME280;58302;51.446;-2.000;2023-12-07T02:41:39;100322.97;;;5.40;100.00
55301;BME280;58302;51.446;-2.000;2023-12-07T02:44:14;100312.50;;;5.43;100.00
55301;BME280;58302;51.446;-2.000;2023-12-07T02:46:44;100309.81;;;5.43;100.00
55301;BME280;58302;51.446;-2.000;2023-12-07T02:49:24;100306.91;;;5.45;100.00
55301;BME280;58302;51.446;-2.000;2023-12-07T02:51:56;100300.22;;;5.47;100.00
55301;BME280;58302;51.446;-2.000;2023-12-07T02:54:23;100292.13;;;5.47;100.00
55301;BME280;58302;51.446;-2.000;2023-12-07T02:56:51;100291.56;;;5.45;100.00
55301;BME280;58302;51.446;-2.000;2023-12-07T02:59:17;100293.75;;;5.48;100.00
55301;BME280;58302;51.446;-2.000;2023-12-07T03:02:00;100284.41;;;5.51;100.00
55301;BME280;58302;51.446;-2.000;2023-12-07T03:04:39;100276.91;;;5.53;100.00
55301;BME280;58302;51.446;-2.000;2023-12-07T03:07:10;100272.91;;;5.55;100.00
55301;BME280;58302;51.446;-2.000;2023-12-07T03:09:42;100262.47;;;5.59;100.00
55301;BME280;58302;51.446;-2.000;2023-12-07T03:12:08;100262.25;;;5.61;100.00
55301;BME280;58302;51.446;-2.000;2023-12-07T03:14:37;100254.16;;;5.61;100.00
55301;BME280;58302;51.446;-2.000;2023-12-07T03:17:11;100258.00;;;5.65;100.00
55301;BME280;58302;51.446;-2.000;2023-12-07T03:20:12;100251.34;;;5.67;100.00
55301;BME280;58302;51.446;-2.000;2023-12-07T03:22:43;100240.31;;;5.69;100.00
55301;BME280;58302;51.446;-2.000;2023-12-07T03:25:28;100221.53;;;5.74;100.00
55301;BME280;58302;51.446;-2.000;2023-12-07T03:28:07;100228.56;;;5.75;100.00
55301;BME280;58302;51.446;-2.000;2023-12-07T03:30:34;100210.28;;;5.77;100.00
55301;BME280;58302;51.446;-2.000;2023-12-07T03:33:03;100202.75;;;5.79;100.00
55301;BME280;58302;51.446;-2.000;2023-12-07T03:35:29;100210.03;;;5.78;100.00
55301;BME280;58302;51.446;-2.000;2023-12-07T03:37:55;100207.66;;;5.82;100.00
55301;BME280;58302;51.446;-2.000;2023-12-07T03:40:31;100193.97;;;5.84;100.00
55301;BME280;58302;51.446;-2.000;2023-12-07T03:42:58;100191.00;;;5.85;100.00
55301;BME280;58302;51.446;-2.000;2023-12-07T03:45:25;100189.69;;;5.88;100.00
55301;BME280;58302;51.446;-2.000;2023-12-07T03:47:51;100192.19;;;5.89;100.00
55301;BME280;58302;51.446;-2.000;2023-12-07T03:50:17;100183.28;;;5.89;100.00
55301;BME280;58302;51.446;-2.000;2023-12-07T03:52:44;100179.50;;;5.90;100.00
55301;BME280;58302;51.446;-2.000;2023-12-07T03:55:10;100180.31;;;5.90;100.00
55301;BME280;58302;51.446;-2.000;2023-12-07T03:57:37;100152.31;;;5.91;100.00
55301;BME280;58302;51.446;-2.000;2023-12-07T04:00:05;100150.44;;;5.92;100.00
55301;BME280;58302;51.446;-2.000;2023-12-07T04:02:34;100144.78;;;5.93;100.00
55301;BME280;58302;51.446;-2.000;2023-12-07T04:05:02;100149.38;;;5.93;100.00
55301;BME280;58302;51.446;-2.000;2023-12-07T04:07:37;100138.38;;;5.94;100.00
55301;BME280;58302;51.446;-2.000;2023-12-07T04:10:04;100137.63;;;5.99;100.00
55301;BME280;58302;51.446;-2.000;2023-12-07T04:12:36;100132.47;;;5.97;100.00
55301;BME280;58302;51.446;-2.000;2023-12-07T04:15:02;100138.47;;;5.99;100.00
55301;BME280;58302;51.446;-2.000;2023-12-07T04:17:32;100130.38;;;5.99;100.00
55301;BME280;58302;51.446;-2.000;2023-12-07T04:19:58;100140.09;;;6.00;100.00
55301;BME280;58302;51.446;-2.000;2023-12-07T04:22:31;100137.97;;;6.02;100.00
55301;BME280;58302;51.446;-2.000;2023-12-07T04:25:01;100137.97;;;6.02;100.00
55301;BME280;58302;51.446;-2.000;2023-12-07T04:27:27;100136.06;;;6.03;100.00
55301;BME280;58302;51.446;-2.000;2023-12-07T04:29:53;100128.78;;;6.03;100.00
55301;BME280;58302;51.446;-2.000;2023-12-07T04:32:19;100131.38;;;6.10;100.00
55301;BME280;58302;51.446;-2.000;2023-12-07T04:34:45;100121.38;;;6.11;100.00
55301;BME280;58302;51.446;-2.000;2023-12-07T04:37:12;100113.03;;;6.12;100.00
55301;BME280;58302;51.446;-2.000;2023-12-07T04:39:40;100116.56;;;6.13;100.00
55301;BME280;58302;51.446;-2.000;2023-12-07T04:42:07;100106.84;;;6.12;100.00
55301;BME280;58302;51.446;-2.000;2023-12-07T04:44:33;100112.22;;;6.12;100.00
55301;BME280;58302;51.446;-2.000;2023-12-07T04:47:02;100126.03;;;6.15;100.00
55301;BME280;58302;51.446;-2.000;2023-12-07T04:49:28;100117.94;;;6.15;100.00
55301;BME280;58302;51.446;-2.000;2023-12-07T04:51:55;100118.78;;;6.16;100.00
55301;BME280;58302;51.446;-2.000;2023-12-07T04:54:40;100111.00;;;6.19;100.00
55301;BME280;58302;51.446;-2.000;2023-12-07T04:57:06;100103.16;;;6.18;100.00
55301;BME280;58302;51.446;-2.000;2023-12-07T04:59:35;100098.91;;;6.22;100.00
55301;BME280;58302;51.446;-2.000;2023-12-07T05:02:02;100093.00;;;6.25;100.00
55301;BME280;58302;51.446;-2.000;2023-12-07T05:04:29;100113.53;;;6.26;100.00
55301;BME280;58302;51.446;-2.000;2023-12-07T05:06:55;100095.13;;;6.23;100.00
55301;BME280;58302;51.446;-2.000;2023-12-07T05:09:21;100098.09;;;6.21;100.00
55301;BME280;58302;51.446;-2.000;2023-12-07T05:11:52;100108.97;;;6.26;100.00
55301;BME280;58302;51.446;-2.000;2023-12-07T05:14:19;100116.22;;;6.26;100.00
55301;BME280;58302;51.446;-2.000;2023-12-07T05:16:45;100122.78;;;6.30;100.00
55301;BME280;58302;51.446;-2.000;2023-12-07T05:19:14;100121.97;;;6.29;100.00
55301;BME280;58302;51.446;-2.000;2023-12-07T05:21:40;100112.22;;;6.28;100.00
55301;BME280;58302;51.446;-2.000;2023-12-07T05:24:06;100121.97;;;6.29;100.00
55301;BME280;58302;51.446;-2.000;2023-12-07T05:26:32;100102.81;;;6.31;100.00
55301;BME280;58302;51.446;-2.000;2023-12-07T05:28:58;100100.63;;;6.28;100.00
55301;BME280;58302;51.446;-2.000;2023-12-07T05:31:24;100103.31;;;6.28;100.00
55301;BME280;58302;51.446;-2.000;2023-12-07T05:33:51;100104.94;;;6.29;100.00
55301;BME280;58302;51.446;-2.000;2023-12-07T05:36:20;100088.75;;;6.29;100.00
55301;BME280;58302;51.446;-2.000;2023-12-07T05:38:46;100092.28;;;6.29;100.00
55301;BME280;58302;51.446;-2.000;2023-12-07T05:41:12;100089.91;;;6.33;100.00
55301;BME280;58302;51.446;-2.000;2023-12-07T05:43:41;100085.81;;;6.30;100.00
55301;BME280;58302;51.446;-2.000;2023-12-07T05:46:09;100088.28;;;6.32;100.00
55301;BME280;58302;51.446;-2.000;2023-12-07T05:48:36;100079.13;;;6.33;100.00
55301;BME280;58302;51.446;-2.000;2023-12-07T05:51:02;100070.44;;;6.31;100.00
55301;BME280;58302;51.446;-2.000;2023-12-07T05:53:30;100054.22;;;6.31;100.00
55301;BME280;58302;51.446;-2.000;2023-12-07T05:56:00;100060.69;;;6.30;100.00
55301;BME280;58302;51.446;-2.000;2023-12-07T05:58:27;100041.00;;;6.29;100.00
55301;BME280;58302;51.446;-2.000;2023-12-07T06:00:56;100037.22;;;6.30;100.00
55301;BME280;58302;51.446;-2.000;2023-12-07T06:03:22;100027.75;;;6.28;100.00
55301;BME280;58302;51.446;-2.000;2023-12-07T06:05:48;100033.16;;;6.28;100.00
55301;BME280;58302;51.446;-2.000;2023-12-07T06:08:15;100033.41;;;6.26;100.00
55301;BME280;58302;51.446;-2.000;2023-12-07T06:10:41;100033.16;;;6.28;100.00
55301;BME280;58302;51.446;-2.000;2023-12-07T06:13:07;100021.84;;;6.31;100.00
55301;BME280;58302;51.446;-2.000;2023-12-07T06:15:36;100014.81;;;6.30;100.00
55301;BME280;58302;51.446;-2.000;2023-12-07T06:18:03;100017.03;;;6.33;100.00
55301;BME280;58302;51.446;-2.000;2023-12-07T06:20:29;100013.53;;;6.32;100.00
55301;BME280;58302;51.446;-2.000;2023-12-07T06:22:59;100006.81;;;6.35;100.00
55301;BME280;58302;51.446;-2.000;2023-12-07T06:25:25;99987.91;;;6.35;100.00
55301;BME280;58302;51.446;-2.000;2023-12-07T06:27:52;99987.34;;;6.33;100.00
55301;BME280;58302;51.446;-2.000;2023-12-07T06:30:19;99986.28;;;6.34;100.00
55301;BME280;58302;51.446;-2.000;2023-12-07T06:32:45;99987.34;;;6.33;100.00
55301;BME280;58302;51.446;-2.000;2023-12-07T06:35:14;100000.94;;;6.38;100.00
55301;BME280;58302;51.446;-2.000;2023-12-07T06:37:46;100010.06;;;6.37;100.00
55301;BME280;58302;51.446;-2.000;2023-12-07T06:40:12;99989.53;;;6.36;100.00
55301;BME280;58302;51.446;-2.000;2023-12-07T06:42:38;99991.16;;;6.37;100.00
55301;BME280;58302;51.446;-2.000;2023-12-07T06:45:06;99964.44;;;6.36;100.00
55301;BME280;58302;51.446;-2.000;2023-12-07T06:47:40;99977.44;;;6.39;100.00
55301;BME280;58302;51.446;-2.000;2023-12-07T06:50:09;99982.03;;;6.38;100.00
55301;BME280;58302;51.446;-2.000;2023-12-07T06:52:40;99984.41;;;6.34;100.00
55301;BME280;58302;51.446;-2.000;2023-12-07T06:55:16;99973.34;;;6.36;100.00
55301;BME280;58302;51.446;-2.000;2023-12-07T06:57:44;99974.41;;;6.35;100.00
55301;BME280;58302;51.446;-2.000;2023-12-07T07:00:11;99964.44;;;6.36;100.00
55301;BME280;58302;51.446;-2.000;2023-12-07T07:02:39;99962.81;;;6.34;100.00
55301;BME280;58302;51.446;-2.000;2023-12-07T07:05:07;99956.59;;;6.34;100.00
55301;BME280;58302;51.446;-2.000;2023-12-07T07:07:34;99949.66;;;6.38;100.00
55301;BME280;58302;51.446;-2.000;2023-12-07T07:10:02;99956.09;;;6.37;100.00
55301;BME280;58302;51.446;-2.000;2023-12-07T07:12:28;99949.56;;;6.33;100.00
55301;BME280;58302;51.446;-2.000;2023-12-07T07:14:55;99948.25;;;6.36;100.00
55301;BME280;58302;51.446;-2.000;2023-12-07T07:17:21;99948.25;;;6.36;100.00
55301;BME280;58302;51.446;-2.000;2023-12-07T07:19:47;99934.50;;;6.37;100.00
55301;BME280;58302;51.446;-2.000;2023-12-07T07:22:14;99946.13;;;6.38;100.00
55301;BME280;58302;51.446;-2.000;2023-12-07T07:24:52;99915.38;;;6.39;100.00
55301;BME280;58302;51.446;-2.000;2023-12-07T07:27:18;99944.81;;;6.40;100.00
55301;BME280;58302;51.446;-2.000;2023-12-07T07:29:44;99920.50;;;6.40;100.00
55301;BME280;58302;51.446;-2.000;2023-12-07T07:32:10;99937.25;;;6.42;100.00
55301;BME280;58302;51.446;-2.000;2023-12-07T07:34:37;99936.78;;;6.45;100.00
55301;BME280;58302;51.446;-2.000;2023-12-07T07:37:03;99933.81;;;6.47;100.00
55301;BME280;58302;51.446;-2.000;2023-12-07T07:39:29;99921.72;;;6.49;100.00
55301;BME280;58302;51.446;-2.000;2023-12-07T07:41:55;99926.84;;;6.51;100.00
55301;BME280;58302;51.446;-2.000;2023-12-07T07:44:21;99943.53;;;6.48;100.00
55301;BME280;58302;51.446;-2.000;2023-12-07T07:46:47;99937.91;;;6.49;100.00
55301;BME280;58302;51.446;-2.000;2023-12-07T07:49:22;99940.84;;;6.48;100.00
55301;BME280;58302;51.446;-2.000;2023-12-07T07:51:52;99930.88;;;6.48;100.00
55301;BME280;58302;51.446;-2.000;2023-12-07T07:54:18;99932.50;;;6.49;100.00
55301;BME280;58302;51.446;-2.000;2023-12-07T07:56:47;99925.50;;;6.48;100.00
55301;BME280;58302;51.446;-2.000;2023-12-07T07:59:23;99933.59;;;6.48;100.00
55301;BME280;58302;51.446;-2.000;2023-12-07T08:01:49;99927.94;;;6.50;100.00
55301;BME280;58302;51.446;-2.000;2023-12-07T08:04:17;99920.38;;;6.52;100.00
55301;BME280;58302;51.446;-2.000;2023-12-07T08:06:51;99915.81;;;6.52;100.00
55301;BME280;58302;51.446;-2.000;2023-12-07T08:09:17;99927.66;;;6.51;100.00
55301;BME280;58302;51.446;-2.000;2023-12-07T08:11:43;99924.16;;;6.51;100.00
55301;BME280;58302;51.446;-2.000;2023-12-07T08:14:12;99900.69;;;6.51;100.00
55301;BME280;58302;51.446;-2.000;2023-12-07T08:16:44;99912.03;;;6.53;100.00
55301;BME280;58302;51.446;-2.000;2023-12-07T08:19:12;99916.94;;;6.56;100.00
55301;BME280;58302;51.446;-2.000;2023-12-07T08:21:39;99887.25;;;6.56;100.00
55301;BME280;58302;51.446;-2.000;2023-12-07T08:24:14;99901.81;;;6.55;100.00
55301;BME280;58302;51.446;-2.000;2023-12-07T08:26:44;99901.81;;;6.55;100.00
55301;BME280;58302;51.446;-2.000;2023-12-07T08:29:10;99897.72;;;6.53;100.00
55301;BME280;58302;51.446;-2.000;2023-12-07T08:31:37;99905.00;;;6.52;100.00
55301;BME280;58302;51.446;-2.000;2023-12-07T08:34:05;99909.03;;;6.50;100.00
55301;BME280;58302;51.446;-2.000;2023-12-07T08:36:31;99897.44;;;6.49;100.00
55301;BME280;58302;51.446;-2.000;2023-12-07T08:39:09;99899.31;;;6.49;100.00
55301;BME280;58302;51.446;-2.000;2023-12-07T08:41:35;99894.72;;;6.49;100.00
55301;BME280;58302;51.446;-2.000;2023-12-07T08:44:08;99884.22;;;6.53;100.00
55301;BME280;58302;51.446;-2.000;2023-12-07T08:46:41;99870.50;;;6.54;100.00
55301;BME280;58302;51.446;-2.000;2023-12-07T08:49:11;99877.78;;;6.54;100.00
55301;BME280;58302;51.446;-2.000;2023-12-07T08:51:41;99863.44;;;6.53;100.00
55301;BME280;58302;51.446;-2.000;2023-12-07T08:54:11;99863.44;;;6.53;100.00
55301;BME280;58302;51.446;-2.000;2023-12-07T08:56:46;99868.34;;;6.56;100.00
55301;BME280;58302;51.446;-2.000;2023-12-07T08:59:13;99845.94;;;6.56;100.00
55301;BME280;58302;51.446;-2.000;2023-12-07T09:01:39;99860.25;;;6.56;100.00
55301;BME280;58302;51.446;-2.000;2023-12-07T09:04:07;99840.22;;;6.52;100.00
55301;BME280;58302;51.446;-2.000;2023-12-07T09:06:34;99837.03;;;6.55;100.00
55301;BME280;58302;51.446;-2.000;2023-12-07T09:09:04;99845.41;;;6.59;100.00
55301;BME280;58302;51.446;-2.000;2023-12-07T09:11:33;99830.56;;;6.56;100.00
55301;BME280;58302;51.446;-2.000;2023-12-07T09:14:01;99837.56;;;6.57;100.00
55301;BME280;58302;51.446;-2.000;2023-12-07T09:16:30;99834.31;;;6.55;100.00
55301;BME280;58302;51.446;-2.000;2023-12-07T09:18:56;99835.63;;;6.53;100.00
55301;BME280;58302;51.446;-2.000;2023-12-07T09:21:23;99853.16;;;6.50;100.00
55301;BME280;58302;51.446;-2.000;2023-12-07T09:23:53;99848.03;;;6.49;100.00
55301;BME280;58302;51.446;-2.000;2023-12-07T09:26:19;99845.56;;;6.47;100.00
55301;BME280;58302;51.446;-2.000;2023-12-07T09:28:46;99846.38;;;6.48;100.00
55301;BME280;58302;51.446;-2.000;2023-12-07T09:31:12;99852.28;;;6.45;100.00
55301;BME280;58302;51.446;-2.000;2023-12-07T09:33:40;99848.78;;;6.44;100.00
55301;BME280;58302;51.446;-2.000;2023-12-07T09:36:08;99838.47;;;6.41;100.00
55301;BME280;58302;51.446;-2.000;2023-12-07T09:38:35;99840.34;;;6.41;100.00
55301;BME280;58302;51.446;-2.000;2023-12-07T09:41:04;99825.78;;;6.42;100.00
55301;BME280;58302;51.446;-2.000;2023-12-07T09:43:31;99826.31;;;6.39;100.00
55301;BME280;58302;51.446;-2.000;2023-12-07T09:45:59;99827.63;;;6.36;100.00
55301;BME280;58302;51.446;-2.000;2023-12-07T09:48:26;99818.72;;;6.36;100.00
55301;BME280;58302;51.446;-2.000;2023-12-07T09:50:55;99819.53;;;6.36;100.00
55301;BME280;58302;51.446;-2.000;2023-12-07T09:53:22;99788.97;;;6.30;100.00
55301;BME280;58302;51.446;-2.000;2023-12-07T09:55:48;99785.47;;;6.30;100.00
55301;BME280;58302;51.446;-2.000;2023-12-07T09:58:15;99778.69;;;6.27;100.00
55301;BME280;58302;51.446;-2.000;2023-12-07T10:00:43;99788.69;;;6.27;100.00
55301;BME280;58302;51.446;-2.000;2023-12-07T10:03:20;99773.84;;;6.29;100.00
55301;BME280;58302;51.446;-2.000;2023-12-07T10:05:59;99766.56;;;6.30;100.00
55301;BME280;58302;51.446;-2.000;2023-12-07T10:08:33;99765.44;;;6.26;100.00
55301;BME280;58302;51.446;-2.000;2023-12-07T10:11:08;99768.97;;;6.26;100.00
55301;BME280;58302;51.446;-2.000;2023-12-07T10:13:36;99789.16;;;6.24;100.00
55301;BME280;58302;51.446;-2.000;2023-12-07T10:16:13;99792.34;;;6.21;100.00
55301;BME280;58302;51.446;-2.000;2023-12-07T10:18:41;99788.28;;;6.18;100.00
55301;BME280;58302;51.446;-2.000;2023-12-07T10:21:07;99798.78;;;6.15;100.00
55301;BME280;58302;51.446;-2.000;2023-12-07T10:23:38;99788.44;;;6.06;100.00
55301;BME280;58302;51.446;-2.000;2023-12-07T10:26:06;99778.72;;;6.05;100.00
55301;BME280;58302;51.446;-2.000;2023-12-07T10:28:35;99776.56;;;6.07;100.00
55301;BME280;58302;51.446;-2.000;2023-12-07T10:31:02;99770.38;;;6.07;100.00
55301;BME280;58302;51.446;-2.000;2023-12-07T10:33:28;99760.38;;;6.07;100.00
55301;BME280;58302;51.446;-2.000;2023-12-07T10:35:55;99776.91;;;6.11;100.00
55301;BME280;58302;51.446;-2.000;2023-12-07T10:38:22;99782.03;;;6.13;100.00
55301;BME280;58302;51.446;-2.000;2023-12-07T10:41:05;99761.53;;;6.12;100.00
55301;BME280;58302;51.446;-2.000;2023-12-07T10:43:37;99778.25;;;6.14;100.00
55301;BME280;58302;51.446;-2.000;2023-12-07T10:46:06;99775.00;;;6.12;100.00
55301;BME280;58302;51.446;-2.000;2023-12-07T10:48:35;99759.63;;;6.12;100.00
55301;BME280;58302;51.446;-2.000;2023-12-07T10:51:13;99761.78;;;6.10;100.00
55301;BME280;58302;51.446;-2.000;2023-12-07T10:53:44;99774.19;;;6.11;100.00
55301;BME280;58302;51.446;-2.000;2023-12-07T10:56:23;99770.44;;;6.12;100.00
55301;BME280;58302;51.446;-2.000;2023-12-07T10:59:01;99765.03;;;6.12;100.00
55301;BME280;58302;51.446;-2.000;2023-12-07T11:01:29;99752.34;;;6.13;100.00
55301;BME280;58302;51.446;-2.000;2023-12-07T11:03:58;99753.44;;;6.12;100.00
55301;BME280;58302;51.446;-2.000;2023-12-07T11:06:28;99743.19;;;6.14;100.00
55301;BME280;58302;51.446;-2.000;2023-12-07T11:08:58;99741.31;;;6.14;100.00
55301;BME280;58302;51.446;-2.000;2023-12-07T11:11:34;99729.69;;;6.14;100.00
55301;BME280;58302;51.446;-2.000;2023-12-07T11:14:07;99723.22;;;6.15;100.00
55301;BME280;58302;51.446;-2.000;2023-12-07T11:16:37;99729.22;;;6.17;100.00
55301;BME280;58302;51.446;-2.000;2023-12-07T11:19:05;99720.03;;;6.18;100.00
55301;BME280;58302;51.446;-2.000;2023-12-07T11:21:31;99718.63;;;6.10;100.00
55301;BME280;58302;51.446;-2.000;2023-12-07T11:24:00;99726.13;;;6.08;100.00
55301;BME280;58302;51.446;-2.000;2023-12-07T11:26:29;99718.25;;;6.01;100.00
55301;BME280;58302;51.446;-2.000;2023-12-07T11:28:57;99708.53;;;6.00;100.00
55301;BME280;58302;51.446;-2.000;2023-12-07T11:31:23;99712.31;;;5.99;100.00
55301;BME280;58302;51.446;-2.000;2023-12-07T11:33:49;99707.94;;;5.98;100.00
55301;BME280;58302;51.446;-2.000;2023-12-07T11:36:15;99718.75;;;5.98;100.00
55301;BME280;58302;51.446;-2.000;2023-12-07T11:41:35;99695.84;;;6.01;100.00
55301;BME280;58302;51.446;-2.000;2023-12-07T11:44:06;99680.75;;;6.00;100.00
55301;BME280;58302;51.446;-2.000;2023-12-07T11:46:32;99668.34;;;5.99;100.00
55301;BME280;58302;51.446;-2.000;2023-12-07T11:49:04;99677.53;;;6.03;100.00
55301;BME280;58302;51.446;-2.000;2023-12-07T11:51:38;99658.97;;;6.06;100.00
55301;BME280;58302;51.446;-2.000;2023-12-07T11:54:16;99664.97;;;6.14;100.00
55301;BME280;58302;51.446;-2.000;2023-12-07T11:56:45;99657.44;;;6.16;100.00
55301;BME280;58302;51.446;-2.000;2023-12-07T11:59:14;99658.00;;;6.18;100.00
55301;BME280;58302;51.446;-2.000;2023-12-07T12:01:46;99647.19;;;6.18;100.00
55301;BME280;58302;51.446;-2.000;2023-12-07T12:04:12;99644.50;;;6.18;100.00
55301;BME280;58302;51.446;-2.000;2023-12-07T12:06:39;99641.25;;;6.16;100.00
55301;BME280;58302;51.446;-2.000;2023-12-07T12:09:14;99660.13;;;6.16;100.00
55301;BME280;58302;51.446;-2.000;2023-12-07T12:11:49;99632.03;;;6.12;100.00
55301;BME280;58302;51.446;-2.000;2023-12-07T12:14:19;99627.47;;;6.12;100.00
55301;BME280;58302;51.446;-2.000;2023-12-07T12:16:47;99613.41;;;6.10;100.00
55301;BME280;58302;51.446;-2.000;2023-12-07T12:19:25;99593.19;;;6.13;100.00
55301;BME280;58302;51.446;-2.000;2023-12-07T12:21:55;99606.13;;;6.11;100.00
55301;BME280;58302;51.446;-2.000;2023-12-07T12:24:22;99559.75;;;6.14;100.00
55301;BME280;58302;51.446;-2.000;2023-12-07T12:26:50;99572.69;;;6.12;100.00
55301;BME280;58302;51.446;-2.000;2023-12-07T12:29:19;99568.41;;;6.16;100.00
55301;BME280;58302;51.446;-2.000;2023-12-07T12:31:45;99566.25;;;6.18;100.00
55301;BME280;58302;51.446;-2.000;2023-12-07T12:34:20;99564.41;;;6.23;100.00
55301;BME280;58302;51.446;-2.000;2023-12-07T12:36:46;99547.69;;;6.21;100.00
55301;BME280;58302;51.446;-2.000;2023-12-07T12:39:15;99537.16;;;6.25;100.00
55301;BME280;58302;51.446;-2.000;2023-12-07T12:41:42;99545.28;;;6.25;100.00
55301;BME280;58302;51.446;-2.000;2023-12-07T12:44:10;99531.22;;;6.23;100.00
55301;BME280;58302;51.446;-2.000;2023-12-07T12:46:37;99529.88;;;6.25;100.00
55301;BME280;58302;51.446;-2.000;2023-12-07T12:49:12;99519.91;;;6.26;100.00
55301;BME280;58302;51.446;-2.000;2023-12-07T12:51:39;99512.88;;;6.25;100.00
55301;BME280;58302;51.446;-2.000;2023-12-07T12:54:10;99507.50;;;6.25;100.00
55301;BME280;58302;51.446;-2.000;2023-12-07T12:56:37;99514.78;;;6.24;100.00
55301;BME280;58302;51.446;-2.000;2023-12-07T12:59:04;99505.59;;;6.25;100.00